sensor_id;sensor_type;location;lat;lon;timestamp;temperature;humidity
8892;DHT22;4482;54.332;10.118;2023-12-04T00:00:27;0.50;99.90
8892;DHT22;4482;54.332;10.118;2023-12-04T00:02:55;0.50;99.90
8892;DHT22;4482;54.332;10.118;2023-12-04T00:05:22;0.50;99.90
8892;DHT22;4482;54.332;10.118;2023-12-04T00:07:49;0.50;99.90
8892;DHT22;4482;54.332;10.118;2023-12-04T00:10:15;0.50;99.90
8892;DHT22;4482;54.332;10.118;2023-12-04T00:12:42;0.50;99.90
8892;DHT22;4482;54.332;10.118;2023-12-04T00:15:09;0.50;99.90
8892;DHT22;4482;54.332;10.118;2023-12-04T00:17:36;0.50;99.90
8892;DHT22;4482;54.332;10.118;2023-12-04T00:20:07;0.50;99.90
8892;DHT22;4482;54.332;10.118;2023-12-04T00:22:34;0.50;99.90
8892;DHT22;4482;54.332;10.118;2023-12-04T00:25:01;0.50;99.90
8892;DHT22;4482;54.332;10.118;2023-12-04T00:27:28;0.50;99.90
8892;DHT22;4482;54.332;10.118;2023-12-04T00:29:55;0.50;99.90
8892;DHT22;4482;54.332;10.118;2023-12-04T00:32:22;0.40;99.90
8892;DHT22;4482;54.332;10.118;2023-12-04T00:34:48;0.40;99.90
8892;DHT22;4482;54.332;10.118;2023-12-04T00:37:16;0.40;99.90
8892;DHT22;4482;54.332;10.118;2023-12-04T00:39:43;0.40;99.90
8892;DHT22;4482;54.332;10.118;2023-12-04T00:42:10;0.40;99.90
8892;DHT22;4482;54.332;10.118;2023-12-04T00:44:36;0.40;99.90
8892;DHT22;4482;54.332;10.118;2023-12-04T00:47:03;0.40;99.90
8892;DHT22;4482;54.332;10.118;2023-12-04T00:49:30;0.40;99.90
8892;DHT22;4482;54.332;10.118;2023-12-04T00:51:57;0.40;99.90
8892;DHT22;4482;54.332;10.118;2023-12-04T00:54:25;0.40;99.90
8892;DHT22;4482;54.332;10.118;2023-12-04T00:56:51;0.40;99.90
8892;DHT22;4482;54.332;10.118;2023-12-04T00:59:18;0.30;99.90
8892;DHT22;4482;54.332;10.118;2023-12-04T01:01:45;0.30;99.90
8892;DHT22;4482;54.332;10.118;2023-12-04T01:04:11;0.20;99.90
8892;DHT22;4482;54.332;10.118;2023-12-04T01:06:38;0.20;99.90
8892;DHT22;4482;54.332;10.118;2023-12-04T01:09:05;0.10;99.90
8892;DHT22;4482;54.332;10.118;2023-12-04T01:11:33;0.10;99.90
8892;DHT22;4482;54.332;10.118;2023-12-04T01:13:59;0.10;99.90
8892;DHT22;4482;54.332;10.118;2023-12-04T01:16:26;0.10;99.90
8892;DHT22;4482;54.332;10.118;2023-12-04T01:18:54;0.10;99.90
8892;DHT22;4482;54.332;10.118;2023-12-04T01:21:20;0.00;99.90
8892;DHT22;4482;54.332;10.118;2023-12-04T01:23:47;0.00;99.90
8892;DHT22;4482;54.332;10.118;2023-12-04T01:26:14;0.00;99.90
8892;DHT22;4482;54.332;10.118;2023-12-04T01:28:42;0.00;99.90
8892;DHT22;4482;54.332;10.118;2023-12-04T01:31:08;0.00;99.90
8892;DHT22;4482;54.332;10.118;2023-12-04T01:33:35;0.00;99.90
8892;DHT22;4482;54.332;10.118;2023-12-04T01:36:02;0.00;99.90
8892;DHT22;4482;54.332;10.118;2023-12-04T01:38:29;0.00;99.90
8892;DHT22;4482;54.332;10.118;2023-12-04T01:40:56;0.00;99.90
8892;DHT22;4482;54.332;10.118;2023-12-04T01:43:23;-0.10;99.90
8892;DHT22;4482;54.332;10.118;2023-12-04T01:45:51;-0.10;99.90
8892;DHT22;4482;54.332;10.118;2023-12-04T01:48:18;-0.10;99.90
8892;DHT22;4482;54.332;10.118;2023-12-04T01:50:45;-0.10;99.90
8892;DHT22;4482;54.332;10.118;2023-12-04T01:53:12;-0.10;99.90
8892;DHT22;4482;54.332;10.118;2023-12-04T01:55:39;-0.10;99.90
8892;DHT22;4482;54.332;10.118;2023-12-04T01:58:06;-0.10;99.90
8892;DHT22;4482;54.332;10.118;2023-12-04T02:00:33;-0.10;99.90
8892;DHT22;4482;54.332;10.118;2023-12-04T02:03:01;-0.10;99.90
8892;DHT22;4482;54.332;10.118;2023-12-04T02:05:28;-0.10;99.90
8892;DHT22;4482;54.332;10.118;2023-12-04T02:07:55;-0.10;99.90
8892;DHT22;4482;54.332;10.118;2023-12-04T02:10:21;-0.10;99.90
8892;DHT22;4482;54.332;10.118;2023-12-04T02:12:48;-0.20;99.90
8892;DHT22;4482;54.332;10.118;2023-12-04T02:15:15;-0.20;99.90
8892;DHT22;4482;54.332;10.118;2023-12-04T02:17:42;-0.20;99.90
8892;DHT22;4482;54.332;10.118;2023-12-04T02:20:11;-0.20;99.90
8892;DHT22;4482;54.332;10.118;2023-12-04T02:22:38;-0.20;99.90
8892;DHT22;4482;54.332;10.118;2023-12-04T02:25:07;-0.30;99.90
8892;DHT22;4482;54.332;10.118;2023-12-04T02:27:37;-0.30;99.90
8892;DHT22;4482;54.332;10.118;2023-12-04T02:30:05;-0.30;99.90
8892;DHT22;4482;54.332;10.118;2023-12-04T02:32:33;-0.40;99.90
8892;DHT22;4482;54.332;10.118;2023-12-04T02:35:02;-0.40;99.90
8892;DHT22;4482;54.332;10.118;2023-12-04T02:37:29;-0.40;99.90
8892;DHT22;4482;54.332;10.118;2023-12-04T02:39:56;-0.50;99.90
8892;DHT22;4482;54.332;10.118;2023-12-04T02:42:25;-0.50;99.90
8892;DHT22;4482;54.332;10.118;2023-12-04T02:44:52;-0.50;99.90
8892;DHT22;4482;54.332;10.118;2023-12-04T02:47:18;-0.50;99.90
8892;DHT22;4482;54.332;10.118;2023-12-04T02:49:45;-0.60;99.90
8892;DHT22;4482;54.332;10.118;2023-12-04T02:52:12;-0.60;99.90
8892;DHT22;4482;54.332;10.118;2023-12-04T02:54:38;-0.60;99.90
8892;DHT22;4482;54.332;10.118;2023-12-04T02:57:05;-0.60;99.90
8892;DHT22;4482;54.332;10.118;2023-12-04T02:59:33;-0.60;99.90
8892;DHT22;4482;54.332;10.118;2023-12-04T03:02:00;-0.60;99.90
8892;DHT22;4482;54.332;10.118;2023-12-04T03:04:27;-0.70;99.90
8892;DHT22;4482;54.332;10.118;2023-12-04T03:06:54;-0.70;99.90
8892;DHT22;4482;54.332;10.118;2023-12-04T03:09:21;-0.70;99.90
8892;DHT22;4482;54.332;10.118;2023-12-04T03:11:48;-0.80;99.90
8892;DHT22;4482;54.332;10.118;2023-12-04T03:14:14;-0.80;99.90
8892;DHT22;4482;54.332;10.118;2023-12-04T03:16:42;-0.80;99.90
8892;DHT22;4482;54.332;10.118;2023-12-04T03:19:09;-0.80;99.90
8892;DHT22;4482;54.332;10.118;2023-12-04T03:21:36;-0.80;99.90
8892;DHT22;4482;54.332;10.118;2023-12-04T03:24:03;-0.80;99.90
8892;DHT22;4482;54.332;10.118;2023-12-04T03:26:30;-0.80;99.90
8892;DHT22;4482;54.332;10.118;2023-12-04T03:28:56;-0.80;99.90
8892;DHT22;4482;54.332;10.118;2023-12-04T03:31:23;-0.80;99.90
8892;DHT22;4482;54.332;10.118;2023-12-04T03:33:51;-0.90;99.90
8892;DHT22;4482;54.332;10.118;2023-12-04T03:36:18;-0.90;99.90
8892;DHT22;4482;54.332;10.118;2023-12-04T03:38:45;-0.90;99.90
8892;DHT22;4482;54.332;10.118;2023-12-04T03:41:14;-0.90;99.90
8892;DHT22;4482;54.332;10.118;2023-12-04T03:43:41;-1.00;99.90
8892;DHT22;4482;54.332;10.118;2023-12-04T03:46:08;-1.00;99.90
8892;DHT22;4482;54.332;10.118;2023-12-04T03:48:34;-1.00;99.90
8892;DHT22;4482;54.332;10.118;2023-12-04T03:51:03;-1.10;99.90
8892;DHT22;4482;54.332;10.118;2023-12-04T03:53:33;-1.10;99.90
8892;DHT22;4482;54.332;10.118;2023-12-04T03:56:00;-1.10;99.90
8892;DHT22;4482;54.332;10.118;2023-12-04T03:58:26;-1.10;99.90
8892;DHT22;4482;54.332;10.118;2023-12-04T04:00:53;-1.10;99.90
8892;DHT22;4482;54.332;10.118;2023-12-04T04:03:20;-1.10;99.90
8892;DHT22;4482;54.332;10.118;2023-12-04T04:05:47;-1.10;99.90
8892;DHT22;4482;54.332;10.118;2023-12-04T04:08:15;-1.10;99.90
8892;DHT22;4482;54.332;10.118;2023-12-04T04:10:41;-1.20;99.90
8892;DHT22;4482;54.332;10.118;2023-12-04T04:13:08;-1.10;99.90
8892;DHT22;4482;54.332;10.118;2023-12-04T04:15:35;-1.20;99.90
8892;DHT22;4482;54.332;10.118;2023-12-04T04:18:02;-1.20;99.90
8892;DHT22;4482;54.332;10.118;2023-12-04T04:20:29;-1.20;99.90
8892;DHT22;4482;54.332;10.118;2023-12-04T04:22:55;-1.20;99.90
8892;DHT22;4482;54.332;10.118;2023-12-04T04:25:23;-1.20;99.90
8892;DHT22;4482;54.332;10.118;2023-12-04T04:27:50;-1.20;99.90
8892;DHT22;4482;54.332;10.118;2023-12-04T04:30:17;-1.20;99.90
8892;DHT22;4482;54.332;10.118;2023-12-04T04:32:43;-1.20;99.90
8892;DHT22;4482;54.332;10.118;2023-12-04T04:35:10;-1.20;99.90
8892;DHT22;4482;54.332;10.118;2023-12-04T04:37:37;-1.20;99.90
8892;DHT22;4482;54.332;10.118;2023-12-04T04:40:04;-1.20;99.90
8892;DHT22;4482;54.332;10.118;2023-12-04T04:42:32;-1.30;99.90
8892;DHT22;4482;54.332;10.118;2023-12-04T04:44:59;-1.30;99.90
8892;DHT22;4482;54.332;10.118;2023-12-04T04:47:26;-1.20;99.90
8892;DHT22;4482;54.332;10.118;2023-12-04T04:49:52;-1.20;99.90
8892;DHT22;4482;54.332;10.118;2023-12-04T04:52:19;-1.30;99.90
8892;DHT22;4482;54.332;10.118;2023-12-04T04:54:46;-1.30;99.90
8892;DHT22;4482;54.332;10.118;2023-12-04T04:57:12;-1.30;99.90
8892;DHT22;4482;54.332;10.118;2023-12-04T04:59:40;-1.20;99.90
8892;DHT22;4482;54.332;10.118;2023-12-04T05:02:07;-1.20;99.90
8892;DHT22;4482;54.332;10.118;2023-12-04T05:04:34;-1.20;99.90
8892;DHT22;4482;54.332;10.118;2023-12-04T05:07:01;-1.20;99.90
8892;DHT22;4482;54.332;10.118;2023-12-04T05:09:27;-1.20;99.90
8892;DHT22;4482;54.332;10.118;2023-12-04T05:11:54;-1.20;99.90
8892;DHT22;4482;54.332;10.118;2023-12-04T05:14:21;-1.20;99.90
8892;DHT22;4482;54.332;10.118;2023-12-04T05:16:49;-1.20;99.90
8892;DHT22;4482;54.332;10.118;2023-12-04T05:19:16;-1.20;99.90
8892;DHT22;4482;54.332;10.118;2023-12-04T05:21:42;-1.20;99.90
8892;DHT22;4482;54.332;10.118;2023-12-04T05:24:09;-1.10;99.90
8892;DHT22;4482;54.332;10.118;2023-12-04T05:26:36;-1.10;99.90
8892;DHT22;4482;54.332;10.118;2023-12-04T05:29:02;-1.20;99.90
8892;DHT22;4482;54.332;10.118;2023-12-04T05:31:29;-1.10;99.90
8892;DHT22;4482;54.332;10.118;2023-12-04T05:33:57;-1.20;99.90
8892;DHT22;4482;54.332;10.118;2023-12-04T05:36:24;-1.20;99.90
8892;DHT22;4482;54.332;10.118;2023-12-04T05:38:50;-1.20;99.90
8892;DHT22;4482;54.332;10.118;2023-12-04T05:41:18;-1.10;99.90
8892;DHT22;4482;54.332;10.118;2023-12-04T05:43:45;-1.00;99.90
8892;DHT22;4482;54.332;10.118;2023-12-04T05:46:12;-1.00;99.90
8892;DHT22;4482;54.332;10.118;2023-12-04T05:48:39;-1.00;99.90
8892;DHT22;4482;54.332;10.118;2023-12-04T05:51:07;-1.00;99.90
8892;DHT22;4482;54.332;10.118;2023-12-04T05:53:34;-1.10;99.90
8892;DHT22;4482;54.332;10.118;2023-12-04T05:56:01;-1.10;99.90
8892;DHT22;4482;54.332;10.118;2023-12-04T05:58:28;-1.10;99.90
8892;DHT22;4482;54.332;10.118;2023-12-04T06:00:54;-1.10;99.90
8892;DHT22;4482;54.332;10.118;2023-12-04T06:03:21;-1.20;99.90
8892;DHT22;4482;54.332;10.118;2023-12-04T06:05:48;-1.10;99.90
8892;DHT22;4482;54.332;10.118;2023-12-04T06:08:16;-1.20;99.90
8892;DHT22;4482;54.332;10.118;2023-12-04T06:10:42;-1.30;99.90
8892;DHT22;4482;54.332;10.118;2023-12-04T06:13:09;-1.30;99.90
8892;DHT22;4482;54.332;10.118;2023-12-04T06:15:36;-1.30;99.90
8892;DHT22;4482;54.332;10.118;2023-12-04T06:18:02;-1.30;99.90
8892;DHT22;4482;54.332;10.118;2023-12-04T06:20:30;-1.30;99.90
8892;DHT22;4482;54.332;10.118;2023-12-04T06:22:56;-1.30;99.90
8892;DHT22;4482;54.332;10.118;2023-12-04T06:25:25;-1.30;99.90
8892;DHT22;4482;54.332;10.118;2023-12-04T06:27:52;-1.40;99.90
8892;DHT22;4482;54.332;10.118;2023-12-04T06:30:19;-1.40;99.90
8892;DHT22;4482;54.332;10.118;2023-12-04T06:32:46;-1.40;99.90
8892;DHT22;4482;54.332;10.118;2023-12-04T06:35:13;-1.30;99.90
8892;DHT22;4482;54.332;10.118;2023-12-04T06:37:40;-1.40;99.90
8892;DHT22;4482;54.332;10.118;2023-12-04T06:40:07;-1.30;99.90
8892;DHT22;4482;54.332;10.118;2023-12-04T06:42:38;-1.30;99.90
8892;DHT22;4482;54.332;10.118;2023-12-04T06:45:05;-1.30;99.90
8892;DHT22;4482;54.332;10.118;2023-12-04T06:47:32;-1.30;99.90
8892;DHT22;4482;54.332;10.118;2023-12-04T06:50:00;-1.30;99.90
8892;DHT22;4482;54.332;10.118;2023-12-04T06:52:27;-1.30;99.90
8892;DHT22;4482;54.332;10.118;2023-12-04T06:54:53;-1.30;99.90
8892;DHT22;4482;54.332;10.118;2023-12-04T06:57:20;-1.20;99.90
8892;DHT22;4482;54.332;10.118;2023-12-04T06:59:48;-1.20;99.90
8892;DHT22;4482;54.332;10.118;2023-12-04T07:02:15;-1.20;99.90
8892;DHT22;4482;54.332;10.118;2023-12-04T07:04:41;-1.20;99.90
8892;DHT22;4482;54.332;10.118;2023-12-04T07:07:08;-1.20;99.90
8892;DHT22;4482;54.332;10.118;2023-12-04T07:09:35;-1.20;99.90
8892;DHT22;4482;54.332;10.118;2023-12-04T07:12:02;-1.20;99.90
8892;DHT22;4482;54.332;10.118;2023-12-04T07:14:29;-1.20;99.90
8892;DHT22;4482;54.332;10.118;2023-12-04T07:16:57;-1.20;99.90
8892;DHT22;4482;54.332;10.118;2023-12-04T07:19:23;-1.20;99.90
8892;DHT22;4482;54.332;10.118;2023-12-04T07:21:51;-1.10;99.90
8892;DHT22;4482;54.332;10.118;2023-12-04T07:24:17;-1.10;99.90
8892;DHT22;4482;54.332;10.118;2023-12-04T07:26:44;-1.10;99.90
8892;DHT22;4482;54.332;10.118;2023-12-04T07:29:10;-1.20;99.90
8892;DHT22;4482;54.332;10.118;2023-12-04T07:31:37;-1.30;99.90
8892;DHT22;4482;54.332;10.118;2023-12-04T07:34:05;-1.30;99.90
8892;DHT22;4482;54.332;10.118;2023-12-04T07:36:32;-1.30;99.90
8892;DHT22;4482;54.332;10.118;2023-12-04T07:38:59;-1.30;99.90
8892;DHT22;4482;54.332;10.118;2023-12-04T07:41:25;-1.30;99.90
8892;DHT22;4482;54.332;10.118;2023-12-04T07:43:52;-1.20;99.90
8892;DHT22;4482;54.332;10.118;2023-12-04T07:46:20;-1.20;99.90
8892;DHT22;4482;54.332;10.118;2023-12-04T07:48:46;-1.20;99.90
8892;DHT22;4482;54.332;10.118;2023-12-04T07:51:14;-1.20;99.90
8892;DHT22;4482;54.332;10.118;2023-12-04T07:53:41;-1.20;99.90
8892;DHT22;4482;54.332;10.118;2023-12-04T07:56:08;-1.20;99.90
8892;DHT22;4482;54.332;10.118;2023-12-04T07:58:35;-1.20;99.90
8892;DHT22;4482;54.332;10.118;2023-12-04T08:01:02;-1.10;99.90
8892;DHT22;4482;54.332;10.118;2023-12-04T08:03:29;-1.00;99.90
8892;DHT22;4482;54.332;10.118;2023-12-04T08:05:56;-1.00;99.90
8892;DHT22;4482;54.332;10.118;2023-12-04T08:08:25;-0.90;99.90
8892;DHT22;4482;54.332;10.118;2023-12-04T08:10:51;-1.00;99.90
8892;DHT22;4482;54.332;10.118;2023-12-04T08:13:18;-1.00;99.90
8892;DHT22;4482;54.332;10.118;2023-12-04T08:15:45;-0.90;99.90
8892;DHT22;4482;54.332;10.118;2023-12-04T08:18:12;-0.90;99.90
8892;DHT22;4482;54.332;10.118;2023-12-04T08:20:39;-1.00;99.90
8892;DHT22;4482;54.332;10.118;2023-12-04T08:23:05;-1.00;99.90
8892;DHT22;4482;54.332;10.118;2023-12-04T08:25:33;-1.00;99.90
8892;DHT22;4482;54.332;10.118;2023-12-04T08:28:01;-0.90;99.90
8892;DHT22;4482;54.332;10.118;2023-12-04T08:30:28;-0.80;99.90
8892;DHT22;4482;54.332;10.118;2023-12-04T08:32:55;-0.80;99.90
8892;DHT22;4482;54.332;10.118;2023-12-04T08:35:22;-0.80;99.90
8892;DHT22;4482;54.332;10.118;2023-12-04T08:37:49;-0.80;99.90
8892;DHT22;4482;54.332;10.118;2023-12-04T08:40:16;-0.70;99.90
8892;DHT22;4482;54.332;10.118;2023-12-04T08:42:44;-0.70;99.90
8892;DHT22;4482;54.332;10.118;2023-12-04T08:45:11;-0.70;99.90
8892;DHT22;4482;54.332;10.118;2023-12-04T08:47:37;-0.60;99.90
8892;DHT22;4482;54.332;10.118;2023-12-04T08:50:05;-0.60;99.90
8892;DHT22;4482;54.332;10.118;2023-12-04T08:52:32;-0.50;99.90
8892;DHT22;4482;54.332;10.118;2023-12-04T08:54:59;-0.60;99.90
8892;DHT22;4482;54.332;10.118;2023-12-04T08:57:25;-0.60;99.90
8892;DHT22;4482;54.332;10.118;2023-12-04T08:59:53;-0.60;99.90
8892;DHT22;4482;54.332;10.118;2023-12-04T09:02:20;-0.60;99.90
8892;DHT22;4482;54.332;10.118;2023-12-04T09:04:47;-0.50;99.90
8892;DHT22;4482;54.332;10.118;2023-12-04T09:07:14;-0.50;99.90
8892;DHT22;4482;54.332;10.118;2023-12-04T09:09:41;-0.50;99.90
8892;DHT22;4482;54.332;10.118;2023-12-04T09:12:07;-0.50;99.90
8892;DHT22;4482;54.332;10.118;2023-12-04T09:14:34;-0.50;99.90
8892;DHT22;4482;54.332;10.118;2023-12-04T09:17:02;-0.50;99.90
8892;DHT22;4482;54.332;10.118;2023-12-04T09:19:30;-0.50;99.90
8892;DHT22;4482;54.332;10.118;2023-12-04T09:21:56;-0.60;99.90
8892;DHT22;4482;54.332;10.118;2023-12-04T09:24:23;-0.50;99.90
8892;DHT22;4482;54.332;10.118;2023-12-04T09:26:50;-0.60;99.90
8892;DHT22;4482;54.332;10.118;2023-12-04T09:29:17;-0.60;99.90
8892;DHT22;4482;54.332;10.118;2023-12-04T09:31:44;-0.60;99.90
8892;DHT22;4482;54.332;10.118;2023-12-04T09:34:12;-0.60;99.90
8892;DHT22;4482;54.332;10.118;2023-12-04T09:36:38;-0.60;99.90
8892;DHT22;4482;54.332;10.118;2023-12-04T09:39:05;-0.50;99.90
8892;DHT22;4482;54.332;10.118;2023-12-04T09:41:32;-0.50;99.90
8892;DHT22;4482;54.332;10.118;2023-12-04T09:43:58;-0.40;99.90
8892;DHT22;4482;54.332;10.118;2023-12-04T09:46:24;-0.40;99.90
8892;DHT22;4482;54.332;10.118;2023-12-04T09:48:52;-0.30;99.90
8892;DHT22;4482;54.332;10.118;2023-12-04T09:51:20;-0.30;99.90
8892;DHT22;4482;54.332;10.118;2023-12-04T09:53:48;-0.30;99.90
8892;DHT22;4482;54.332;10.118;2023-12-04T09:56:15;-0.30;99.90
8892;DHT22;4482;54.332;10.118;2023-12-04T09:58:43;-0.40;99.90
8892;DHT22;4482;54.332;10.118;2023-12-04T10:01:10;-0.40;99.90
8892;DHT22;4482;54.332;10.118;2023-12-04T10:03:37;-0.50;99.90
8892;DHT22;4482;54.332;10.118;2023-12-04T10:06:05;-0.40;99.90
8892;DHT22;4482;54.332;10.118;2023-12-04T10:08:33;-0.40;99.90
8892;DHT22;4482;54.332;10.118;2023-12-04T10:11:00;-0.30;99.90
8892;DHT22;4482;54.332;10.118;2023-12-04T10:13:27;-0.30;99.90
8892;DHT22;4482;54.332;10.118;2023-12-04T10:15:54;-0.20;99.90
8892;DHT22;4482;54.332;10.118;2023-12-04T10:18:24;-0.20;99.90
8892;DHT22;4482;54.332;10.118;2023-12-04T10:20:51;-0.20;99.90
8892;DHT22;4482;54.332;10.118;2023-12-04T10:23:18;-0.10;99.90
8892;DHT22;4482;54.332;10.118;2023-12-04T10:25:46;0.00;99.90
8892;DHT22;4482;54.332;10.118;2023-12-04T10:28:14;0.00;99.90
8892;DHT22;4482;54.332;10.118;2023-12-04T10:30:41;0.00;99.90
8892;DHT22;4482;54.332;10.118;2023-12-04T10:33:08;0.00;99.90
8892;DHT22;4482;54.332;10.118;2023-12-04T10:35:36;0.10;99.90
8892;DHT22;4482;54.332;10.118;2023-12-04T10:38:03;0.10;99.90
8892;DHT22;4482;54.332;10.118;2023-12-04T10:40:31;0.20;99.90
8892;DHT22;4482;54.332;10.118;2023-12-04T10:45:48;0.20;99.90
8892;DHT22;4482;54.332;10.118;2023-12-04T10:48:15;0.20;99.90
8892;DHT22;4482;54.332;10.118;2023-12-04T10:50:43;0.20;99.90
8892;DHT22;4482;54.332;10.118;2023-12-04T10:53:11;0.30;99.90
8892;DHT22;4482;54.332;10.118;2023-12-04T10:55:37;0.30;99.90
8892;DHT22;4482;54.332;10.118;2023-12-04T10:58:06;0.40;99.90
8892;DHT22;4482;54.332;10.118;2023-12-04T11:00:33;0.40;99.90
8892;DHT22;4482;54.332;10.118;2023-12-04T11:03:04;0.40;99.90
8892;DHT22;4482;54.332;10.118;2023-12-04T11:05:31;0.40;99.90
8892;DHT22;4482;54.332;10.118;2023-12-04T11:07:59;0.40;99.90
8892;DHT22;4482;54.332;10.118;2023-12-04T11:10:27;0.50;99.90
8892;DHT22;4482;54.332;10.118;2023-12-04T11:12:56;0.40;99.90
8892;DHT22;4482;54.332;10.118;2023-12-04T11:15:23;0.50;99.90
8892;DHT22;4482;54.332;10.118;2023-12-04T11:17:53;0.60;99.90
8892;DHT22;4482;54.332;10.118;2023-12-04T11:20:22;0.60;99.90
8892;DHT22;4482;54.332;10.118;2023-12-04T11:22:50;0.60;99.90
8892;DHT22;4482;54.332;10.118;2023-12-04T11:25:18;0.60;99.90
8892;DHT22;4482;54.332;10.118;2023-12-04T11:27:44;0.60;99.90
8892;DHT22;4482;54.332;10.118;2023-12-04T11:30:12;0.60;99.90
8892;DHT22;4482;54.332;10.118;2023-12-04T11:32:45;0.60;99.90
8892;DHT22;4482;54.332;10.118;2023-12-04T11:35:14;0.50;99.90
8892;DHT22;4482;54.332;10.118;2023-12-04T11:37:44;0.50;99.90
8892;DHT22;4482;54.332;10.118;2023-12-04T11:40:12;0.60;99.90
8892;DHT22;4482;54.332;10.118;2023-12-04T11:42:40;0.60;99.90
8892;DHT22;4482;54.332;10.118;2023-12-04T11:45:07;0.60;99.90
8892;DHT22;4482;54.332;10.118;2023-12-04T11:47:48;0.60;99.90
8892;DHT22;4482;54.332;10.118;2023-12-04T11:50:15;0.60;99.90
8892;DHT22;4482;54.332;10.118;2023-12-04T11:52:42;0.50;99.90
8892;DHT22;4482;54.332;10.118;2023-12-04T11:55:10;0.50;99.90
8892;DHT22;4482;54.332;10.118;2023-12-04T11:57:37;0.60;99.90
8892;DHT22;4482;54.332;10.118;2023-12-04T12:00:08;0.60;99.90
8892;DHT22;4482;54.332;10.118;2023-12-04T12:02:34;0.60;99.90
8892;DHT22;4482;54.332;10.118;2023-12-04T12:05:01;0.60;99.90
8892;DHT22;4482;54.332;10.118;2023-12-04T12:07:28;0.60;99.90
8892;DHT22;4482;54.332;10.118;2023-12-04T12:09:55;0.50;99.90
8892;DHT22;4482;54.332;10.118;2023-12-04T12:12:23;0.40;99.90
8892;DHT22;4482;54.332;10.118;2023-12-04T12:14:51;0.40;99.90
8892;DHT22;4482;54.332;10.118;2023-12-04T12:17:18;0.40;99.90
8892;DHT22;4482;54.332;10.118;2023-12-04T12:19:45;0.40;99.90
8892;DHT22;4482;54.332;10.118;2023-12-04T12:22:11;0.40;99.90
8892;DHT22;4482;54.332;10.118;2023-12-04T12:24:38;0.40;99.90
8892;DHT22;4482;54.332;10.118;2023-12-04T12:27:05;0.30;99.90
8892;DHT22;4482;54.332;10.118;2023-12-04T12:29:33;0.30;99.90
8892;DHT22;4482;54.332;10.118;2023-12-04T12:32:00;0.30;99.90
8892;DHT22;4482;54.332;10.118;2023-12-04T12:34:28;0.30;99.90
8892;DHT22;4482;54.332;10.118;2023-12-04T12:36:57;0.30;99.90
8892;DHT22;4482;54.332;10.118;2023-12-04T12:39:23;0.30;99.90
8892;DHT22;4482;54.332;10.118;2023-12-04T12:41:50;0.20;99.90
8892;DHT22;4482;54.332;10.118;2023-12-04T12:44:17;0.30;99.90
8892;DHT22;4482;54.332;10.118;2023-12-04T12:46:48;0.20;99.90
8892;DHT22;4482;54.332;10.118;2023-12-04T12:49:16;0.20;99.90
8892;DHT22;4482;54.332;10.118;2023-12-04T12:51:44;0.20;99.90
8892;DHT22;4482;54.332;10.118;2023-12-04T12:54:11;0.20;99.90
8892;DHT22;4482;54.332;10.118;2023-12-04T12:56:37;0.20;99.90
8892;DHT22;4482;54.332;10.118;2023-12-04T12:59:04;0.30;99.90
8892;DHT22;4482;54.332;10.118;2023-12-04T13:01:32;0.30;99.90
8892;DHT22;4482;54.332;10.118;2023-12-04T13:04:01;0.30;99.90
8892;DHT22;4482;54.332;10.118;2023-12-04T13:06:27;0.30;99.90
8892;DHT22;4482;54.332;10.118;2023-12-04T13:08:54;0.30;99.90
8892;DHT22;4482;54.332;10.118;2023-12-04T13:11:21;0.30;99.90
8892;DHT22;4482;54.332;10.118;2023-12-04T13:13:47;0.30;99.90
8892;DHT22;4482;54.332;10.118;2023-12-04T13:16:13;0.20;99.90
8892;DHT22;4482;54.332;10.118;2023-12-04T13:18:40;0.20;99.90
8892;DHT22;4482;54.332;10.118;2023-12-04T13:21:09;0.20;99.90
8892;DHT22;4482;54.332;10.118;2023-12-04T13:23:36;0.20;99.90
8892;DHT22;4482;54.332;10.118;2023-12-04T13:26:02;0.30;99.90
8892;DHT22;4482;54.332;10.118;2023-12-04T13:28:29;0.40;99.90
8892;DHT22;4482;54.332;10.118;2023-12-04T13:30:56;0.40;99.90
8892;DHT22;4482;54.332;10.118;2023-12-04T13:33:23;0.40;99.90
8892;DHT22;4482;54.332;10.118;2023-12-04T13:35:50;0.20;99.90
8892;DHT22;4482;54.332;10.118;2023-12-04T13:38:18;0.20;99.90
8892;DHT22;4482;54.332;10.118;2023-12-04T13:40:45;0.30;99.90
8892;DHT22;4482;54.332;10.118;2023-12-04T13:43:25;0.30;99.90
8892;DHT22;4482;54.332;10.118;2023-12-04T13:46:09;0.30;99.90
8892;DHT22;4482;54.332;10.118;2023-12-04T13:48:36;0.30;99.90
8892;DHT22;4482;54.332;10.118;2023-12-04T13:51:06;0.20;99.90
8892;DHT22;4482;54.332;10.118;2023-12-04T13:53:34;0.20;99.90
8892;DHT22;4482;54.332;10.118;2023-12-04T13:56:04;0.20;99.90
8892;DHT22;4482;54.332;10.118;2023-12-04T13:58:50;0.20;99.90
8892;DHT22;4482;54.332;10.118;2023-12-04T14:01:21;0.20;99.90
8892;DHT22;4482;54.332;10.118;2023-12-04T14:03:49;0.20;99.90
8892;DHT22;4482;54.332;10.118;2023-12-04T14:06:16;0.20;99.90
8892;DHT22;4482;54.332;10.118;2023-12-04T14:08:44;0.10;99.90
8892;DHT22;4482;54.332;10.118;2023-12-04T14:11:11;0.10;99.90
8892;DHT22;4482;54.332;10.118;2023-12-04T14:13:39;0.10;99.90
8892;DHT22;4482;54.332;10.118;2023-12-04T14:16:07;0.10;99.90
8892;DHT22;4482;54.332;10.118;2023-12-04T14:18:33;0.10;99.90
8892;DHT22;4482;54.332;10.118;2023-12-04T14:21:00;0.10;99.90
8892;DHT22;4482;54.332;10.118;2023-12-04T14:23:27;0.10;99.90
8892;DHT22;4482;54.332;10.118;2023-12-04T14:25:55;0.00;99.90
8892;DHT22;4482;54.332;10.118;2023-12-04T14:28:22;0.00;99.90
8892;DHT22;4482;54.332;10.118;2023-12-04T14:30:48;0.00;99.90
8892;DHT22;4482;54.332;10.118;2023-12-04T14:33:15;0.00;99.90
8892;DHT22;4482;54.332;10.118;2023-12-04T14:35:42;0.00;99.90
8892;DHT22;4482;54.332;10.118;2023-12-04T14:38:09;0.00;99.90
8892;DHT22;4482;54.332;10.118;2023-12-04T14:40:35;0.00;99.90
8892;DHT22;4482;54.332;10.118;2023-12-04T14:43:03;0.00;99.90
8892;DHT22;4482;54.332;10.118;2023-12-04T14:45:34;0.00;99.90
8892;DHT22;4482;54.332;10.118;2023-12-04T14:48:01;0.00;99.90
8892;DHT22;4482;54.332;10.118;2023-12-04T14:50:31;0.00;99.90
8892;DHT22;4482;54.332;10.118;2023-12-04T14:52:57;-0.10;99.90
8892;DHT22;4482;54.332;10.118;2023-12-04T14:55:37;0.00;99.90
8892;DHT22;4482;54.332;10.118;2023-12-04T14:58:27;-0.10;99.90
8892;DHT22;4482;54.332;10.118;2023-12-04T15:01:20;-0.10;99.90
8892;DHT22;4482;54.332;10.118;2023-12-04T15:04:03;0.00;99.90
8892;DHT22;4482;54.332;10.118;2023-12-04T15:07:02;0.10;99.90
8892;DHT22;4482;54.332;10.118;2023-12-04T15:09:46;0.00;99.90
8892;DHT22;4482;54.332;10.118;2023-12-04T15:12:32;0.00;99.90
8892;DHT22;4482;54.332;10.118;2023-12-04T15:15:19;0.00;99.90
8892;DHT22;4482;54.332;10.118;2023-12-04T15:18:00;0.00;99.90
8892;DHT22;4482;54.332;10.118;2023-12-04T15:20:41;0.10;99.90
8892;DHT22;4482;54.332;10.118;2023-12-04T15:23:08;0.00;99.90
8892;DHT22;4482;54.332;10.118;2023-12-04T15:25:35;0.00;99.90
8892;DHT22;4482;54.332;10.118;2023-12-04T15:28:01;0.00;99.90
8892;DHT22;4482;54.332;10.118;2023-12-04T15:30:34;-0.10;99.90
8892;DHT22;4482;54.332;10.118;2023-12-04T15:33:00;-0.20;99.90
8892;DHT22;4482;54.332;10.118;2023-12-04T15:35:29;-0.20;99.90
8892;DHT22;4482;54.332;10.118;2023-12-04T15:37:55;-0.20;99.90
8892;DHT22;4482;54.332;10.118;2023-12-04T15:40:21;-0.20;99.90
8892;DHT22;4482;54.332;10.118;2023-12-04T15:42:47;-0.20;99.90
8892;DHT22;4482;54.332;10.118;2023-12-04T15:45:14;-0.10;99.90
8892;DHT22;4482;54.332;10.118;2023-12-04T15:47:41;-0.10;99.90
8892;DHT22;4482;54.332;10.118;2023-12-04T15:50:08;-0.10;99.90
8892;DHT22;4482;54.332;10.118;2023-12-04T15:52:33;-0.10;99.90
8892;DHT22;4482;54.332;10.118;2023-12-04T15:55:04;-0.10;99.90
8892;DHT22;4482;54.332;10.118;2023-12-04T15:57:30;-0.10;99.90